createdAt,value
2018-01-24T00:00:07.023Z,6.35
2018-01-24T00:02:35.297Z,6.43
2018-01-24T00:05:03.591Z,6.45
2018-01-24T00:07:32.915Z,6.10
2018-01-24T00:10:01.874Z,6.20
2018-01-24T00:12:30.042Z,6.53
2018-01-24T00:14:58.213Z,6.35
2018-01-24T00:17:26.487Z,6.00
2018-01-24T00:19:55.034Z,6.60
2018-01-24T00:22:23.269Z,5.87
2018-01-24T00:24:51.506Z,5.72
2018-01-24T00:27:19.678Z,5.47
2018-01-24T00:29:47.914Z,5.10
2018-01-24T00:32:16.405Z,6.00
2018-01-24T00:34:44.558Z,6.05
2018-01-24T00:37:13.479Z,5.43
2018-01-24T00:39:42.033Z,5.20
2018-01-24T00:42:10.972Z,5.28
2018-01-24T00:44:39.159Z,5.50
2018-01-24T00:47:07.294Z,5.18
2018-01-24T00:49:35.434Z,5.32
2018-01-24T00:52:03.644Z,5.22
2018-01-24T00:54:31.791Z,5.18
2018-01-24T00:56:59.949Z,5.00
2018-01-24T00:59:28.908Z,4.93
2018-01-24T01:01:57.047Z,5.32
2018-01-24T01:04:25.197Z,4.53
2018-01-24T01:06:53.698Z,4.53
2018-01-24T01:09:21.853Z,4.65
2018-01-24T01:11:50.124Z,4.50
2018-01-24T01:14:19.071Z,5.15
2018-01-24T01:16:47.232Z,4.20
2018-01-24T01:19:15.418Z,4.53
2018-01-24T01:21:43.626Z,5.15
2018-01-24T01:24:11.763Z,4.10
2018-01-24T01:26:39.912Z,4.65
2018-01-24T01:29:08.064Z,4.60
2018-01-24T01:31:36.218Z,4.65
2018-01-24T01:34:05.138Z,3.65
2018-01-24T01:36:33.282Z,5.57
2018-01-24T01:39:01.462Z,4.87
2018-01-24T01:41:29.691Z,4.55
2018-01-24T01:43:57.944Z,4.45
2018-01-24T01:46:26.120Z,5.37
2018-01-24T01:48:54.564Z,3.87
2018-01-24T01:51:22.735Z,4.55
2018-01-24T01:53:51.687Z,4.60
2018-01-24T01:56:19.822Z,5.70
2018-01-24T01:58:48.000Z,4.45
2018-01-24T02:01:16.125Z,4.62
2018-01-24T02:03:45.042Z,4.90
2018-01-24T02:06:13.271Z,4.03
2018-01-24T02:08:41.464Z,4.85
2018-01-24T02:11:10.426Z,4.62
2018-01-24T02:13:38.579Z,4.50
2018-01-24T02:16:06.716Z,5.43
2018-01-24T02:18:34.872Z,4.20
2018-01-24T02:21:03.808Z,4.50
2018-01-24T02:23:32.754Z,4.93
2018-01-24T02:26:01.695Z,4.78
2018-01-24T02:28:29.892Z,4.35
2018-01-24T02:30:58.068Z,4.00
2018-01-24T02:33:26.230Z,5.32
2018-01-24T02:35:54.416Z,4.80
2018-01-24T02:41:32.008Z,4.82
2018-01-24T02:44:00.421Z,4.40
2018-01-24T02:46:29.379Z,5.47
2018-01-24T02:48:57.546Z,4.80
2018-01-24T02:51:25.702Z,4.37
2018-01-24T02:53:53.856Z,4.35
2018-01-24T02:56:22.017Z,4.55
2018-01-24T02:58:50.967Z,4.22
2018-01-24T03:01:19.150Z,4.03
2018-01-24T03:03:47.365Z,4.32
2018-01-24T03:06:15.529Z,4.25
2018-01-24T03:08:44.473Z,4.70
2018-01-24T03:11:12.810Z,4.30
2018-01-24T03:13:40.971Z,4.25
2018-01-24T03:16:09.169Z,4.30
2018-01-24T03:18:37.323Z,5.28
2018-01-24T03:21:05.499Z,5.07
2018-01-24T03:23:33.667Z,4.85
2018-01-24T03:26:01.862Z,4.68
2018-01-24T03:28:30.022Z,4.30
2018-01-24T03:30:58.219Z,4.50
2018-01-24T03:33:26.410Z,4.32
2018-01-24T03:35:54.588Z,4.10
2018-01-24T03:38:22.762Z,4.80
2018-01-24T03:40:50.971Z,4.05
2018-01-24T03:43:19.897Z,4.05
2018-01-24T03:45:48.074Z,3.80
2018-01-24T03:48:16.322Z,3.60
2018-01-24T03:50:44.528Z,3.80
2018-01-24T03:53:12.794Z,3.40
2018-01-24T03:55:41.280Z,3.70
2018-01-24T03:58:09.491Z,3.22
2018-01-24T04:00:37.684Z,3.70
2018-01-24T04:03:06.618Z,3.35
2018-01-24T04:05:34.785Z,3.25
2018-01-24T04:08:02.943Z,3.12
2018-01-24T04:10:31.095Z,2.90
2018-01-24T04:13:00.023Z,3.45
2018-01-24T04:15:29.006Z,4.00
2018-01-24T04:17:57.155Z,4.15
2018-01-24T04:20:25.325Z,3.75
2018-01-24T04:22:53.550Z,3.17
2018-01-24T04:25:21.837Z,3.47
2018-01-24T04:27:51.079Z,4.97
2018-01-24T04:30:19.247Z,4.05
2018-01-24T04:32:48.180Z,4.30
2018-01-24T04:35:16.390Z,4.30
2018-01-24T04:37:44.530Z,4.22
2018-01-24T04:40:12.687Z,4.20
2018-01-24T04:42:40.853Z,4.15
2018-01-24T04:45:09.015Z,3.50
2018-01-24T04:47:37.176Z,5.05
2018-01-24T04:50:05.332Z,4.95
2018-01-24T04:52:34.263Z,4.00
2018-01-24T04:55:02.467Z,5.10
2018-01-24T04:57:30.679Z,5.37
2018-01-24T04:59:59.591Z,5.97
2018-01-24T05:02:27.738Z,5.45
2018-01-24T05:04:56.727Z,4.97
2018-01-24T05:07:25.693Z,5.70
2018-01-24T05:09:53.846Z,4.87
2018-01-24T05:12:22.161Z,4.87
2018-01-24T05:14:50.424Z,4.65
2018-01-24T05:17:18.590Z,4.85
2018-01-24T05:19:46.770Z,6.60
2018-01-24T05:22:14.919Z,6.22
2018-01-24T05:24:43.086Z,6.43
2018-01-24T05:27:11.240Z,5.15
2018-01-24T05:29:39.403Z,6.80
2018-01-24T05:32:07.614Z,6.57
2018-01-24T05:34:35.774Z,7.03
2018-01-24T05:37:03.910Z,7.12
2018-01-24T05:39:32.398Z,6.62
2018-01-24T05:42:00.542Z,6.95
2018-01-24T05:44:28.677Z,6.90
2018-01-24T05:46:56.856Z,7.25
2018-01-24T05:49:25.043Z,8.50
2018-01-24T05:51:53.263Z,7.30
2018-01-24T05:54:21.435Z,7.62
2018-01-24T05:56:50.455Z,7.03
2018-01-24T05:59:18.719Z,7.00
2018-01-24T06:01:46.976Z,5.97
2018-01-24T06:04:15.132Z,6.82
2018-01-24T06:06:44.056Z,8.15
2018-01-24T06:09:12.265Z,7.68
2018-01-24T06:11:40.418Z,6.47
2018-01-24T06:14:08.623Z,7.97
2018-01-24T06:16:36.812Z,7.10
2018-01-24T06:19:05.734Z,6.90
2018-01-24T06:21:33.903Z,6.40
2018-01-24T06:24:02.061Z,7.10
2018-01-24T06:26:30.987Z,6.65
2018-01-24T06:28:59.240Z,6.53
2018-01-24T06:31:27.387Z,5.68
2018-01-24T06:33:56.353Z,7.82
2018-01-24T06:36:24.498Z,7.22
2018-01-24T06:38:52.665Z,6.62
2018-01-24T06:41:20.992Z,6.10
2018-01-24T06:43:49.152Z,6.85
2018-01-24T06:46:17.290Z,7.00
2018-01-24T06:48:45.501Z,6.57
2018-01-24T06:51:13.634Z,7.80
2018-01-24T06:53:41.777Z,7.80
2018-01-24T06:56:10.289Z,6.20
2018-01-24T06:58:38.452Z,7.32
2018-01-24T07:01:06.597Z,8.15
2018-01-24T07:03:35.527Z,6.37
2018-01-24T07:06:03.727Z,7.25
2018-01-24T07:08:31.935Z,7.18
2018-01-24T07:11:00.099Z,6.22
2018-01-24T07:16:38.987Z,6.75
2018-01-24T07:19:07.147Z,6.72
2018-01-24T07:21:35.327Z,6.30
2018-01-24T07:24:03.581Z,7.00
2018-01-24T07:26:31.726Z,6.35
2018-01-24T07:28:59.866Z,6.70
2018-01-24T07:31:28.017Z,6.68
2018-01-24T07:33:56.163Z,6.60
2018-01-24T07:36:25.128Z,7.10
2018-01-24T07:38:53.338Z,5.22
2018-01-24T07:41:21.498Z,7.28
2018-01-24T07:43:49.787Z,6.97
2018-01-24T07:46:17.975Z,6.53
2018-01-24T07:48:46.123Z,6.60
2018-01-24T07:51:14.308Z,6.40
2018-01-24T07:53:42.470Z,6.28
2018-01-24T07:56:10.663Z,6.70
2018-01-24T07:58:38.845Z,6.30
2018-01-24T08:01:06.993Z,6.22
2018-01-24T08:03:35.242Z,5.72
2018-01-24T08:06:03.427Z,6.65
2018-01-24T08:08:32.330Z,6.10
2018-01-24T08:11:01.243Z,6.53
2018-01-24T08:13:29.429Z,6.37
2018-01-24T08:15:58.342Z,5.43
2018-01-24T08:18:26.489Z,6.93
2018-01-24T08:20:54.702Z,6.45
2018-01-24T08:23:22.878Z,6.37
2018-01-24T08:25:51.061Z,6.30
2018-01-24T08:28:19.977Z,5.60
2018-01-24T08:30:48.126Z,5.80
2018-01-24T08:33:17.273Z,5.60
2018-01-24T08:35:45.446Z,4.97
2018-01-24T08:38:13.620Z,6.03
2018-01-24T08:40:41.783Z,5.93
2018-01-24T08:43:10.000Z,6.75
2018-01-24T08:45:38.142Z,6.37
2018-01-24T08:48:06.334Z,5.28
2018-01-24T08:50:34.570Z,5.62
2018-01-24T08:53:02.742Z,6.35
2018-01-24T08:55:30.915Z,5.70
2018-01-24T08:57:59.069Z,5.85
2018-01-24T09:00:27.237Z,6.62
2018-01-24T09:02:55.409Z,7.03
2018-01-24T09:05:24.366Z,5.30
2018-01-24T09:07:52.515Z,6.00
2018-01-24T09:10:20.718Z,5.85
2018-01-24T09:12:48.934Z,5.22
2018-01-24T09:15:17.512Z,5.15
2018-01-24T09:17:45.706Z,5.10
2018-01-24T09:20:13.864Z,4.82
2018-01-24T09:22:42.303Z,6.65
2018-01-24T09:25:11.249Z,5.20
2018-01-24T09:27:39.441Z,6.43
2018-01-24T09:30:07.714Z,5.57
2018-01-24T09:32:35.918Z,4.72
2018-01-24T09:35:04.168Z,5.30
2018-01-24T09:37:32.367Z,5.15
2018-01-24T09:40:00.572Z,5.20
2018-01-24T09:42:28.735Z,5.65
2018-01-24T09:44:57.041Z,5.43
2018-01-24T09:47:25.286Z,5.50
2018-01-24T09:49:54.264Z,5.05
2018-01-24T09:52:23.204Z,5.45
2018-01-24T09:54:51.390Z,4.93
2018-01-24T09:57:19.610Z,5.47
2018-01-24T09:59:48.548Z,4.30
2018-01-24T10:02:16.803Z,5.55
2018-01-24T10:04:44.972Z,5.85
2018-01-24T10:07:13.301Z,4.25
2018-01-24T10:09:41.506Z,4.65
2018-01-24T10:12:09.736Z,4.80
2018-01-24T10:14:37.889Z,4.78
2018-01-24T10:17:06.054Z,4.43
2018-01-24T10:19:34.301Z,4.25
2018-01-24T10:22:03.238Z,4.10
2018-01-24T10:24:31.417Z,4.55
2018-01-24T10:26:59.563Z,5.40
2018-01-24T10:29:27.775Z,4.32
2018-01-24T10:31:55.950Z,4.45
2018-01-24T10:34:24.137Z,3.53
2018-01-24T10:36:53.223Z,4.45
2018-01-24T10:39:21.454Z,4.65
2018-01-24T10:41:49.728Z,4.35
2018-01-24T10:44:17.882Z,4.50
2018-01-24T10:46:46.056Z,3.95
2018-01-24T10:49:14.262Z,4.28
2018-01-24T10:51:42.438Z,3.47
2018-01-24T10:54:10.628Z,3.97
2018-01-24T10:56:38.784Z,4.00
2018-01-24T10:59:07.733Z,3.17
2018-01-24T11:01:35.894Z,3.75
2018-01-24T11:04:04.921Z,4.25
2018-01-24T11:06:33.110Z,3.62
2018-01-24T11:09:02.023Z,3.42
2018-01-24T11:11:30.420Z,3.72
2018-01-24T11:13:58.590Z,4.35
2018-01-24T11:16:26.849Z,3.35
2018-01-24T11:18:55.001Z,2.83
2018-01-24T11:21:23.258Z,3.00
2018-01-24T11:23:51.578Z,2.90
2018-01-24T11:26:19.741Z,3.53
2018-01-24T11:28:47.993Z,3.10
2018-01-24T11:31:16.202Z,3.60
2018-01-24T11:33:44.455Z,3.40
2018-01-24T11:36:12.700Z,2.87
2018-01-24T11:38:40.840Z,2.83
2018-01-24T11:41:09.795Z,2.60
2018-01-24T11:43:38.750Z,3.17
2018-01-24T11:46:06.946Z,2.60
2018-01-24T11:48:35.945Z,3.60
2018-01-24T11:51:04.198Z,2.87
2018-01-24T11:53:32.482Z,2.60
2018-01-24T11:56:00.676Z,2.87
2018-01-24T11:58:28.885Z,2.78
2018-01-24T12:00:57.866Z,2.37
2018-01-24T12:03:26.079Z,2.62
2018-01-24T12:05:54.271Z,2.20
2018-01-24T12:08:22.425Z,2.50
2018-01-24T12:10:50.570Z,2.65
2018-01-24T12:13:19.578Z,3.03
2018-01-24T12:15:48.864Z,2.22
2018-01-24T12:18:17.775Z,2.92
2018-01-24T12:20:45.951Z,3.33
2018-01-24T12:23:14.184Z,2.67
2018-01-24T12:25:42.392Z,2.78
2018-01-24T12:28:10.649Z,3.03
2018-01-24T12:30:39.585Z,2.90
2018-01-24T12:33:07.794Z,2.53
2018-01-24T12:35:35.944Z,2.33
2018-01-24T12:38:04.099Z,2.28
2018-01-24T12:40:32.297Z,2.25
2018-01-24T12:43:00.540Z,2.40
2018-01-24T12:45:28.861Z,2.30
2018-01-24T12:47:57.031Z,2.75
2018-01-24T12:50:25.235Z,1.90
2018-01-24T12:52:54.199Z,3.33
2018-01-24T12:55:22.428Z,2.22
2018-01-24T12:57:50.581Z,2.08
2018-01-24T13:00:18.711Z,1.85
2018-01-24T13:02:46.893Z,2.28
2018-01-24T13:05:15.064Z,2.05
2018-01-24T13:07:43.210Z,1.80
2018-01-24T13:10:11.356Z,1.73
2018-01-24T13:12:39.621Z,1.80
2018-01-24T13:15:07.803Z,1.90
2018-01-24T13:17:36.078Z,1.80
2018-01-24T13:20:04.213Z,1.80
2018-01-24T13:22:32.381Z,1.62
2018-01-24T13:25:00.566Z,1.73
2018-01-24T13:27:29.967Z,1.80
2018-01-24T13:29:58.895Z,1.80
2018-01-24T13:32:27.038Z,1.73
2018-01-24T13:34:55.959Z,1.95
2018-01-24T13:37:24.731Z,4.03
2018-01-24T13:39:53.127Z,1.60
2018-01-24T13:42:21.296Z,1.73
2018-01-24T13:44:49.482Z,1.42
2018-01-24T13:47:17.670Z,2.95
2018-01-24T13:49:45.855Z,1.60
2018-01-24T13:52:14.067Z,1.70
2018-01-24T13:54:42.990Z,2.17
2018-01-24T13:57:11.254Z,1.60
2018-01-24T13:59:39.606Z,1.65
2018-01-24T14:02:08.650Z,3.42
2018-01-24T14:04:36.799Z,1.65
2018-01-24T14:07:04.979Z,1.70
2018-01-24T14:09:33.412Z,2.50
2018-01-24T14:12:02.401Z,1.50
2018-01-24T14:14:30.617Z,1.73
2018-01-24T14:16:58.759Z,1.80
2018-01-24T14:19:29.249Z,1.60
2018-01-24T14:21:57.529Z,1.70
2018-01-24T14:24:25.702Z,1.95
2018-01-24T14:26:53.857Z,2.35
2018-01-24T14:29:22.027Z,1.70
2018-01-24T14:31:50.182Z,1.50
2018-01-24T14:34:18.355Z,1.73
2018-01-24T14:36:46.516Z,1.67
2018-01-24T14:39:14.740Z,1.52
2018-01-24T14:44:17.970Z,1.90
2018-01-24T14:46:46.945Z,1.50
2018-01-24T14:49:15.099Z,1.50
2018-01-24T14:51:43.266Z,1.70
2018-01-24T14:54:11.424Z,1.67
2018-01-24T14:56:39.589Z,1.60
2018-01-24T14:59:07.756Z,1.90
2018-01-24T15:01:35.917Z,1.70
2018-01-24T15:04:04.076Z,1.42
2018-01-24T15:06:33.043Z,1.67
2018-01-24T15:09:01.205Z,1.85
2018-01-24T15:11:30.438Z,2.47
2018-01-24T15:13:59.517Z,1.70
2018-01-24T15:16:27.765Z,1.70
2018-01-24T15:18:55.978Z,2.58
2018-01-24T15:21:24.917Z,1.70
2018-01-24T15:23:53.105Z,1.58
2018-01-24T15:26:21.380Z,1.98
2018-01-24T15:28:49.541Z,1.60
2018-01-24T15:31:19.866Z,1.40
2018-01-24T15:33:48.029Z,1.75
2018-01-24T15:36:16.222Z,1.55
2018-01-24T15:38:45.390Z,1.50
2018-01-24T15:41:13.561Z,1.67
2018-01-24T15:43:41.763Z,1.40
2018-01-24T15:46:10.013Z,1.42
2018-01-24T15:48:38.176Z,1.62
2018-01-24T15:51:06.340Z,1.70
2018-01-24T15:53:34.607Z,5.15
2018-01-24T15:56:03.563Z,1.40
2018-01-24T15:58:31.730Z,1.50
2018-01-24T16:00:59.883Z,1.42
2018-01-24T16:03:28.144Z,2.08
2018-01-24T16:05:56.333Z,1.50
2018-01-24T16:08:24.614Z,1.77
2018-01-24T16:10:52.801Z,1.62
2018-01-24T16:13:21.123Z,1.40
2018-01-24T16:15:50.038Z,1.65
2018-01-24T16:18:18.328Z,1.30
2018-01-24T16:20:46.524Z,1.58
2018-01-24T16:23:14.766Z,1.60
2018-01-24T16:25:42.938Z,1.60
2018-01-24T16:28:11.083Z,1.95
2018-01-24T16:30:39.318Z,1.50
2018-01-24T16:33:07.731Z,1.60
2018-01-24T16:35:36.656Z,2.30
2018-01-24T16:38:04.841Z,1.62
2018-01-24T16:40:33.068Z,1.50
2018-01-24T16:43:01.988Z,1.80
2018-01-24T16:45:30.623Z,1.50
2018-01-24T16:47:58.821Z,1.70
2018-01-24T16:50:27.812Z,1.60
2018-01-24T16:52:55.999Z,1.77
2018-01-24T16:55:24.153Z,1.87
2018-01-24T16:57:53.065Z,1.60
2018-01-24T17:00:21.227Z,1.70
2018-01-24T17:02:49.367Z,1.90
2018-01-24T17:05:17.527Z,1.90
2018-01-24T17:07:45.664Z,1.77
2018-01-24T17:10:13.874Z,1.67
2018-01-24T17:12:42.030Z,1.73
2018-01-24T17:15:10.216Z,1.70
2018-01-24T17:17:38.366Z,1.60
2018-01-24T17:20:06.568Z,1.80
2018-01-24T17:22:34.713Z,1.73
2018-01-24T17:25:02.863Z,2.12
2018-01-24T17:27:31.119Z,2.53
2018-01-24T17:30:01.204Z,1.60
2018-01-24T17:32:30.284Z,1.90
2018-01-24T17:34:58.501Z,1.73
2018-01-24T17:37:27.530Z,2.17
2018-01-24T17:39:55.777Z,1.40
2018-01-24T17:42:23.932Z,2.17
2018-01-24T17:44:52.845Z,1.95
2018-01-24T17:47:20.995Z,1.75
2018-01-24T17:49:49.163Z,1.70
2018-01-24T17:52:18.167Z,1.77
2018-01-24T17:54:47.121Z,1.70
2018-01-24T17:57:15.396Z,1.95
2018-01-24T17:59:44.368Z,1.87
2018-01-24T18:02:12.563Z,1.77
2018-01-24T18:04:40.753Z,1.73
2018-01-24T18:07:08.886Z,1.77
2018-01-24T18:09:37.115Z,2.15
2018-01-24T18:12:06.106Z,1.73
2018-01-24T18:14:34.397Z,1.60
2018-01-24T18:17:02.597Z,2.60
2018-01-24T18:19:30.815Z,1.58
2018-01-24T18:21:59.054Z,1.45
2018-01-24T18:24:27.258Z,1.70
2018-01-24T18:26:55.568Z,1.80
2018-01-24T18:29:23.884Z,1.52
2018-01-24T18:31:52.058Z,1.67
2018-01-24T18:34:20.374Z,1.55
2018-01-24T18:36:48.670Z,1.52
2018-01-24T18:39:16.815Z,1.58
2018-01-24T18:41:44.987Z,1.50
2018-01-24T18:44:13.189Z,1.95
2018-01-24T18:46:41.358Z,1.80
2018-01-24T18:49:10.325Z,2.10
2018-01-24T18:51:39.255Z,2.05
2018-01-24T18:54:07.484Z,1.70
2018-01-24T18:56:35.649Z,1.85
2018-01-24T18:59:03.835Z,2.50
2018-01-24T19:01:32.031Z,1.50
2018-01-24T19:04:00.982Z,1.62
2018-01-24T19:06:30.677Z,1.75
2018-01-24T19:08:59.602Z,1.52
2018-01-24T19:11:27.847Z,1.52
2018-01-24T19:13:56.089Z,1.70
2018-01-24T19:16:24.266Z,2.00
2018-01-24T19:18:55.499Z,1.95
2018-01-24T19:21:23.773Z,1.77
2018-01-24T19:23:52.079Z,1.65
2018-01-24T19:26:20.276Z,2.80
2018-01-24T19:28:48.572Z,1.60
2018-01-24T19:31:16.916Z,2.53
2018-01-24T19:33:45.191Z,1.92
2018-01-24T19:36:13.469Z,3.40
2018-01-24T19:38:41.700Z,1.90
2018-01-24T19:41:09.955Z,1.70
2018-01-24T19:43:38.196Z,1.65
2018-01-24T19:46:06.356Z,1.50
2018-01-24T19:48:34.552Z,2.15
2018-01-24T19:51:02.852Z,4.18
2018-01-24T19:53:30.987Z,1.85
2018-01-24T19:55:59.197Z,1.70
2018-01-24T19:58:28.203Z,1.98
2018-01-24T20:00:57.138Z,1.83
2018-01-24T20:03:25.298Z,2.10
2018-01-24T20:05:53.508Z,1.70
2018-01-24T20:08:21.671Z,2.00
2018-01-24T20:10:49.877Z,1.80
2018-01-24T20:13:18.884Z,2.00
2018-01-24T20:15:47.123Z,1.90
2018-01-24T20:18:16.114Z,1.85
2018-01-24T20:20:47.131Z,1.60
2018-01-24T20:23:15.309Z,1.90
2018-01-24T20:25:43.483Z,2.65
2018-01-24T20:28:11.638Z,2.30
2018-01-24T20:30:39.884Z,1.80
2018-01-24T20:33:08.855Z,1.85
2018-01-24T20:35:37.772Z,2.00
2018-01-24T20:38:05.923Z,1.90
2018-01-24T20:40:34.150Z,2.90
2018-01-24T20:43:02.312Z,2.28
2018-01-24T20:45:30.482Z,1.90
2018-01-24T20:47:58.664Z,1.70
2018-01-24T20:50:26.823Z,1.60
2018-01-24T20:52:55.076Z,2.22
2018-01-24T20:55:23.292Z,1.80
2018-01-24T20:57:51.479Z,2.00
2018-01-24T21:00:19.659Z,2.05
2018-01-24T21:02:47.869Z,1.95
2018-01-24T21:05:16.020Z,1.80
2018-01-24T21:07:45.118Z,1.92
2018-01-24T21:10:14.139Z,2.00
2018-01-24T21:12:42.345Z,2.05
2018-01-24T21:15:10.510Z,1.98
2018-01-24T21:17:38.697Z,2.35
2018-01-24T21:20:06.900Z,2.03
2018-01-24T21:22:35.074Z,1.55
2018-01-24T21:25:04.022Z,1.90
2018-01-24T21:27:32.219Z,1.45
2018-01-24T21:30:18.180Z,2.00
2018-01-24T21:33:03.919Z,1.65
2018-01-24T21:35:50.728Z,1.60
2018-01-24T21:38:19.663Z,1.75
2018-01-24T21:40:47.896Z,2.25
2018-01-24T21:43:16.814Z,2.15
2018-01-24T21:45:44.969Z,1.80
2018-01-24T21:48:13.132Z,2.10
2018-01-24T21:50:42.117Z,1.90
2018-01-24T21:53:10.307Z,3.30
2018-01-24T21:55:38.477Z,2.08
2018-01-24T21:58:06.703Z,1.70
2018-01-24T22:00:34.871Z,1.90
2018-01-24T22:03:03.062Z,1.62
2018-01-24T22:05:31.278Z,2.45
2018-01-24T22:07:59.516Z,1.35
2018-01-24T22:10:27.733Z,1.30
2018-01-24T22:12:56.250Z,1.40
2018-01-24T22:15:24.456Z,1.50
2018-01-24T22:17:53.467Z,1.65
2018-01-24T22:20:21.681Z,1.90
2018-01-24T22:22:49.814Z,1.20
2018-01-24T22:25:19.017Z,1.50
2018-01-24T22:27:47.167Z,1.62
2018-01-24T22:30:16.140Z,1.40
2018-01-24T22:32:44.331Z,2.05
2018-01-24T22:35:13.240Z,1.40
2018-01-24T22:37:41.410Z,1.33
2018-01-24T22:40:09.606Z,1.10
2018-01-24T22:42:37.772Z,1.50
2018-01-24T22:45:06.046Z,1.95
2018-01-24T22:47:34.281Z,1.40
2018-01-24T22:50:02.462Z,1.20
2018-01-24T22:52:31.386Z,1.25
2018-01-24T22:54:59.530Z,0.93
2018-01-24T22:57:28.894Z,1.00
2018-01-24T22:59:57.154Z,0.90
2018-01-24T23:02:25.323Z,1.62
2018-01-24T23:04:53.472Z,1.10
2018-01-24T23:07:21.614Z,1.00
2018-01-24T23:09:50.680Z,1.23
2018-01-24T23:12:18.848Z,0.90
2018-01-24T23:14:47.029Z,1.00
2018-01-24T23:17:15.280Z,0.93
2018-01-24T23:19:43.463Z,0.95
2018-01-24T23:22:11.680Z,1.02
2018-01-24T23:24:39.920Z,1.40
2018-01-24T23:27:08.117Z,1.00
2018-01-24T23:29:37.783Z,1.12
2018-01-24T23:32:05.963Z,1.25
2018-01-24T23:34:34.156Z,1.00
2018-01-24T23:37:02.348Z,1.10
2018-01-24T23:39:30.589Z,1.00
2018-01-24T23:41:58.793Z,1.33
2018-01-24T23:44:26.966Z,1.00
2018-01-24T23:46:55.133Z,1.10
2018-01-24T23:49:23.335Z,1.10
2018-01-24T23:51:52.280Z,1.42
2018-01-24T23:54:21.217Z,1.00
2018-01-24T23:56:50.157Z,1.20
2018-01-24T23:59:18.360Z,1.10
